createdAt,value
2019-02-18T00:01:08.920Z,101434.60
2019-02-18T00:03:39.234Z,101437.81
2019-02-18T00:06:09.455Z,101436.75
2019-02-18T00:08:40.034Z,101436.52
2019-02-18T00:11:15.098Z,101436.70
2019-02-18T00:13:45.777Z,101432.88
2019-02-18T00:16:16.474Z,101432.95
2019-02-18T00:18:46.828Z,101427.39
2019-02-18T00:21:17.296Z,101429.66
2019-02-18T00:23:48.071Z,101428.37
2019-02-18T00:26:18.449Z,101429.77
2019-02-18T00:28:48.923Z,101427.39
2019-02-18T00:31:20.328Z,101426.84
2019-02-18T00:33:51.004Z,101418.60
2019-02-18T00:36:21.464Z,101425.24
2019-02-18T00:38:53.827Z,101427.51
2019-02-18T00:41:24.600Z,101421.41
2019-02-18T00:43:54.924Z,101416.87
2019-02-18T00:46:25.300Z,101416.48
2019-02-18T00:48:55.679Z,101414.22
2019-02-18T00:51:27.093Z,101419.07
2019-02-18T00:53:57.789Z,101421.41
2019-02-18T00:56:28.146Z,101415.31
2019-02-18T00:58:59.024Z,101414.13
2019-02-18T01:01:29.454Z,101410.66
2019-02-18T01:03:59.795Z,101413.31
2019-02-18T01:06:30.168Z,101417.84
2019-02-18T01:09:00.530Z,101416.05
2019-02-18T01:11:30.847Z,101419.95
2019-02-18T01:14:01.247Z,101413.31
2019-02-18T01:16:31.623Z,101416.64
2019-02-18T01:19:02.002Z,101408.52
2019-02-18T01:21:32.625Z,101415.44
2019-02-18T01:24:03.319Z,101420.75
2019-02-18T01:26:33.722Z,101410.91
2019-02-18T01:29:06.408Z,101415.55
2019-02-18T01:31:36.745Z,101415.48
2019-02-18T01:34:07.116Z,101407.73
2019-02-18T01:36:37.589Z,101405.63
2019-02-18T01:39:07.899Z,101399.77
2019-02-18T01:41:38.496Z,101399.91
2019-02-18T01:44:08.844Z,101402.42
2019-02-18T01:46:40.389Z,101400.70
2019-02-18T01:49:10.735Z,101391.01
2019-02-18T01:51:41.062Z,101391.01
2019-02-18T01:54:11.530Z,101391.01
2019-02-18T01:56:42.839Z,101388.89
2019-02-18T01:59:13.529Z,101389.36
2019-02-18T02:01:44.003Z,101388.94
2019-02-18T02:04:14.281Z,101389.36
2019-02-18T02:06:44.704Z,101380.38
2019-02-18T02:09:16.354Z,101389.21
2019-02-18T02:11:46.679Z,101389.29
2019-02-18T02:14:17.232Z,101386.23
2019-02-18T02:16:47.493Z,101392.48
2019-02-18T02:19:17.718Z,101391.16
2019-02-18T02:21:48.123Z,101382.37
2019-02-18T02:24:18.758Z,101381.59
2019-02-18T02:26:49.026Z,101386.98
2019-02-18T02:29:19.390Z,101389.63
2019-02-18T02:31:49.749Z,101379.63
2019-02-18T02:34:20.302Z,101388.53
2019-02-18T02:36:57.116Z,101388.57
2019-02-18T02:39:33.358Z,101384.27
2019-02-18T02:42:03.612Z,101381.53
2019-02-18T02:44:33.927Z,101389.43
2019-02-18T02:47:04.196Z,101380.60
2019-02-18T02:49:36.662Z,101378.95
2019-02-18T02:52:06.945Z,101384.42
2019-02-18T02:54:37.329Z,101377.33
2019-02-18T02:57:13.137Z,101375.16
2019-02-18T02:59:43.448Z,101371.64
2019-02-18T03:02:13.834Z,101366.41
2019-02-18T03:04:44.207Z,101362.82
2019-02-18T03:07:18.341Z,101365.34
2019-02-18T03:09:48.692Z,101365.73
2019-02-18T03:12:19.215Z,101374.38
2019-02-18T03:14:49.498Z,101373.98
2019-02-18T03:17:20.045Z,101364.86
2019-02-18T03:19:50.347Z,101363.06
2019-02-18T03:22:20.698Z,101360.23
2019-02-18T03:25:31.751Z,101356.45
2019-02-18T03:28:55.586Z,101360.05
2019-02-18T03:31:27.884Z,101350.11
2019-02-18T03:34:08.354Z,101358.19
2019-02-18T03:36:38.951Z,101359.72
2019-02-18T03:39:09.501Z,101361.12
2019-02-18T03:41:40.997Z,101354.81
2019-02-18T03:44:11.357Z,101349.28
2019-02-18T03:46:44.650Z,101345.73
2019-02-18T03:49:14.950Z,101349.43
2019-02-18T03:51:45.563Z,101349.18
2019-02-18T03:54:16.545Z,101352.77
2019-02-18T03:56:47.049Z,101353.23
2019-02-18T03:59:19.402Z,101355.92
2019-02-18T04:01:50.209Z,101347.06
2019-02-18T04:04:20.679Z,101353.42
2019-02-18T04:06:50.918Z,101350.12
2019-02-18T04:09:21.396Z,101352.17
2019-02-18T04:11:51.737Z,101350.59
2019-02-18T04:14:22.639Z,101357.69
2019-02-18T04:16:53.010Z,101352.09
2019-02-18T04:19:23.286Z,101355.83
2019-02-18T04:21:53.581Z,101356.36
2019-02-18T04:24:23.984Z,101355.96
2019-02-18T04:26:54.648Z,101357.08
2019-02-18T04:29:25.528Z,101358.62
2019-02-18T04:31:56.390Z,101363.48
2019-02-18T04:34:26.697Z,101355.68
2019-02-18T04:36:58.277Z,101359.01
2019-02-18T04:39:28.588Z,101361.66
2019-02-18T04:41:58.937Z,101355.02
2019-02-18T04:44:30.499Z,101352.37
2019-02-18T04:47:00.877Z,101346.27
2019-02-18T04:49:31.186Z,101346.91
2019-02-18T04:52:01.459Z,101340.41
2019-02-18T04:54:31.895Z,101342.28
2019-02-18T04:57:03.436Z,101344.01
2019-02-18T04:59:33.847Z,101341.61
2019-02-18T05:02:04.235Z,101340.69
2019-02-18T05:04:34.610Z,101336.53
2019-02-18T05:07:05.958Z,101332.55
2019-02-18T05:09:36.413Z,101330.33
2019-02-18T05:12:06.770Z,101327.57
2019-02-18T05:14:37.264Z,101326.24
2019-02-18T05:17:08.698Z,101321.48
2019-02-18T05:19:39.074Z,101329.55
2019-02-18T05:22:09.606Z,101328.13
2019-02-18T05:24:40.342Z,101320.98
2019-02-18T05:27:10.760Z,101318.40
2019-02-18T05:29:43.138Z,101317.09
2019-02-18T05:32:14.143Z,101311.97
2019-02-18T05:34:44.506Z,101307.39
2019-02-18T05:37:15.340Z,101309.72
2019-02-18T05:39:45.788Z,101312.84
2019-02-18T05:42:16.109Z,101306.14
2019-02-18T05:44:46.410Z,101308.25
2019-02-18T05:47:16.943Z,101314.95
2019-02-18T05:49:47.267Z,101319.86
2019-02-18T05:52:17.572Z,101316.81
2019-02-18T05:54:48.071Z,101311.64
2019-02-18T05:57:18.444Z,101317.74
2019-02-18T05:59:49.114Z,101325.48
2019-02-18T06:02:21.518Z,101317.60
2019-02-18T06:04:51.876Z,101325.44
2019-02-18T06:07:22.246Z,101327.48
2019-02-18T06:09:52.771Z,101332.99
2019-02-18T06:12:23.183Z,101334.37
2019-02-18T06:14:53.423Z,101331.20
2019-02-18T06:17:23.819Z,101334.58
2019-02-18T06:19:54.224Z,101339.19
2019-02-18T06:22:24.497Z,101345.30
2019-02-18T06:24:55.224Z,101339.47
2019-02-18T06:27:25.749Z,101339.60
2019-02-18T06:29:58.103Z,101347.61
2019-02-18T06:32:28.549Z,101349.86
2019-02-18T06:34:59.303Z,101355.09
2019-02-18T06:37:29.960Z,101359.04
2019-02-18T06:40:00.395Z,101358.17
2019-02-18T06:42:30.999Z,101358.67
2019-02-18T06:45:35.311Z,101360.47
2019-02-18T06:48:13.729Z,101359.21
2019-02-18T06:50:44.189Z,101370.28
2019-02-18T06:53:15.901Z,101364.19
2019-02-18T06:55:47.322Z,101366.23
2019-02-18T06:58:34.947Z,101367.70
2019-02-18T07:01:31.078Z,101373.00
2019-02-18T07:04:23.530Z,101374.56
2019-02-18T07:07:02.602Z,101370.55
2019-02-18T07:10:05.773Z,101365.67
2019-02-18T07:12:39.830Z,101373.92
2019-02-18T07:15:12.697Z,101368.23
2019-02-18T07:17:43.284Z,101371.94
2019-02-18T07:20:14.630Z,101375.78
2019-02-18T07:22:46.117Z,101376.20
2019-02-18T07:25:18.418Z,101365.48
2019-02-18T07:27:49.353Z,101368.39
2019-02-18T07:30:19.784Z,101367.21
2019-02-18T07:32:50.483Z,101377.28
2019-02-18T07:35:24.363Z,101374.99
2019-02-18T07:38:03.628Z,101377.22
2019-02-18T07:40:34.046Z,101373.71
2019-02-18T07:43:04.354Z,101377.19
2019-02-18T07:45:34.749Z,101374.72
2019-02-18T07:48:05.095Z,101378.63
2019-02-18T07:50:35.588Z,101378.77
2019-02-18T07:53:06.080Z,101383.75
2019-02-18T07:55:36.429Z,101380.48
2019-02-18T07:58:07.229Z,101383.14
2019-02-18T08:00:37.552Z,101374.93
2019-02-18T08:03:07.951Z,101376.76
2019-02-18T08:05:38.296Z,101372.26
2019-02-18T08:08:08.888Z,101371.42
2019-02-18T08:10:39.290Z,101375.13
2019-02-18T08:13:09.742Z,101372.78
2019-02-18T08:15:40.445Z,101377.68
2019-02-18T08:18:10.805Z,101375.73
2019-02-18T08:20:41.165Z,101375.70
2019-02-18T08:23:11.906Z,101377.94
2019-02-18T08:25:42.184Z,101378.27
2019-02-18T08:28:12.472Z,101375.48
2019-02-18T08:30:42.798Z,101371.68
2019-02-18T08:33:13.116Z,101367.48
2019-02-18T08:35:43.525Z,101365.55
2019-02-18T08:38:13.905Z,101375.87
2019-02-18T08:40:44.509Z,101376.37
2019-02-18T08:43:14.814Z,101377.39
2019-02-18T08:45:45.253Z,101379.69
2019-02-18T08:48:15.953Z,101388.90
2019-02-18T08:50:46.967Z,101379.64
2019-02-18T08:53:17.832Z,101377.35
2019-02-18T08:55:48.098Z,101381.44
2019-02-18T08:58:18.623Z,101372.00
2019-02-18T09:00:49.388Z,101372.51
2019-02-18T09:03:19.808Z,101366.77
2019-02-18T09:05:50.434Z,101369.20
2019-02-18T09:08:21.314Z,101368.67
2019-02-18T09:10:51.557Z,101357.35
2019-02-18T09:13:22.026Z,101370.08
2019-02-18T09:15:59.817Z,101370.08
2019-02-18T09:18:24.585Z,101358.43
2019-02-18T09:20:55.050Z,101361.52
2019-02-18T09:23:47.999Z,101357.48
2019-02-18T09:26:18.312Z,101354.48
2019-02-18T09:28:48.946Z,101361.31
2019-02-18T09:31:24.491Z,101359.95
2019-02-18T09:33:54.878Z,101361.44
2019-02-18T09:36:25.198Z,101361.19
2019-02-18T09:38:55.824Z,101359.43
2019-02-18T09:41:26.151Z,101357.55
2019-02-18T09:43:56.677Z,101356.17
2019-02-18T09:46:27.271Z,101349.34
2019-02-18T09:48:57.698Z,101344.39
2019-02-18T09:51:28.150Z,101343.42
2019-02-18T09:53:58.454Z,101346.13
2019-02-18T09:56:29.522Z,101348.16
2019-02-18T09:58:59.893Z,101346.04
2019-02-18T10:01:30.518Z,101343.92
2019-02-18T10:04:00.924Z,101337.67
2019-02-18T10:06:31.278Z,101339.98
2019-02-18T10:09:02.039Z,101338.88
2019-02-18T10:11:32.416Z,101333.80
2019-02-18T10:14:02.806Z,101335.71
2019-02-18T10:16:33.221Z,101327.33
2019-02-18T10:19:04.635Z,101329.06
2019-02-18T10:21:35.090Z,101329.78
2019-02-18T10:24:05.733Z,101323.77
2019-02-18T10:26:37.123Z,101322.30
2019-02-18T10:29:07.448Z,101323.16
2019-02-18T10:31:37.796Z,101320.48
2019-02-18T10:34:08.202Z,101320.95
2019-02-18T10:36:38.488Z,101323.27
2019-02-18T10:39:09.572Z,101319.33
2019-02-18T10:41:40.911Z,101321.16
2019-02-18T10:44:11.588Z,101312.72
2019-02-18T10:46:42.241Z,101309.14
2019-02-18T10:49:19.888Z,101309.78
2019-02-18T10:51:44.579Z,101306.04
2019-02-18T10:54:14.961Z,101295.24
2019-02-18T10:56:47.352Z,101292.56
2019-02-18T10:59:17.612Z,101291.82
2019-02-18T11:01:48.141Z,101284.13
2019-02-18T11:04:18.947Z,101283.54
2019-02-18T11:06:49.555Z,101282.19
2019-02-18T11:09:20.114Z,101291.92
2019-02-18T11:11:50.420Z,101285.17
2019-02-18T11:14:20.717Z,101280.25
2019-02-18T11:16:50.992Z,101281.34
2019-02-18T11:19:21.419Z,101273.94
2019-02-18T11:21:51.735Z,101270.21
2019-02-18T11:24:22.025Z,101263.32
2019-02-18T11:26:52.573Z,101262.23
2019-02-18T11:29:23.430Z,101253.13
2019-02-18T11:31:53.858Z,101257.45
2019-02-18T11:34:24.338Z,101248.69
2019-02-18T11:36:54.784Z,101252.43
2019-02-18T11:39:25.330Z,101241.39
2019-02-18T11:41:56.190Z,101240.15
2019-02-18T11:44:26.721Z,101235.97
2019-02-18T11:46:57.304Z,101232.50
2019-02-18T11:49:27.849Z,101226.20
2019-02-18T11:52:00.054Z,101221.83
2019-02-18T11:54:31.595Z,101218.81
2019-02-18T11:57:01.834Z,101215.80
2019-02-18T11:59:32.437Z,101220.84
2019-02-18T12:02:02.836Z,101226.26
2019-02-18T12:04:33.135Z,101224.20
2019-02-18T12:07:03.408Z,101221.20
2019-02-18T12:09:34.788Z,101214.90
2019-02-18T12:12:05.189Z,101214.72
2019-02-18T12:14:35.527Z,101208.61
2019-02-18T12:17:06.343Z,101201.91
2019-02-18T12:19:38.408Z,101195.78
2019-02-18T12:22:08.663Z,101194.55
2019-02-18T12:24:39.584Z,101201.52
2019-02-18T12:27:10.757Z,101203.22
2019-02-18T12:29:41.096Z,101203.22
2019-02-18T12:32:11.844Z,101192.83
2019-02-18T12:34:43.600Z,101193.81
2019-02-18T12:37:13.913Z,101184.89
2019-02-18T12:39:44.442Z,101186.02
2019-02-18T12:42:14.775Z,101181.23
2019-02-18T12:44:45.457Z,101181.97
2019-02-18T12:47:18.415Z,101180.97
2019-02-18T12:49:51.166Z,101186.31
2019-02-18T12:52:21.562Z,101179.49
2019-02-18T12:54:52.093Z,101172.25
2019-02-18T12:57:22.565Z,101172.25
2019-02-18T12:59:53.034Z,101162.21
2019-02-18T13:02:23.752Z,101157.84
2019-02-18T13:04:54.143Z,101164.67
2019-02-18T13:07:24.406Z,101164.58
2019-02-18T13:09:55.413Z,101155.91
2019-02-18T13:12:25.655Z,101156.77
2019-02-18T13:14:55.935Z,101155.83
2019-02-18T13:17:26.587Z,101152.88
2019-02-18T13:19:57.213Z,101149.21
2019-02-18T13:22:27.543Z,101140.62
2019-02-18T13:24:57.951Z,101146.73
2019-02-18T13:27:28.205Z,101140.86
2019-02-18T13:29:58.587Z,101139.54
2019-02-18T13:32:29.011Z,101143.19
2019-02-18T13:34:59.500Z,101142.47
2019-02-18T13:37:30.187Z,101139.41
2019-02-18T13:40:00.915Z,101131.21
2019-02-18T13:42:31.215Z,101127.67
2019-02-18T13:45:01.905Z,101123.08
2019-02-18T13:47:32.274Z,101115.34
2019-02-18T13:50:02.760Z,101116.91
2019-02-18T13:52:33.335Z,101125.50
2019-02-18T13:55:04.353Z,101114.26
2019-02-18T13:57:35.289Z,101106.29
2019-02-18T14:00:07.715Z,101109.83
2019-02-18T14:02:39.166Z,101110.91
2019-02-18T14:05:09.510Z,101113.60
2019-02-18T14:07:39.840Z,101105.27
2019-02-18T14:10:10.345Z,101104.28
2019-02-18T14:12:41.318Z,101093.30
2019-02-18T14:15:11.866Z,101096.93
2019-02-18T14:17:42.397Z,101093.88
2019-02-18T14:20:14.126Z,101090.83
2019-02-18T14:22:47.984Z,101093.38
2019-02-18T14:25:19.155Z,101087.23
2019-02-18T14:27:49.588Z,101083.44
2019-02-18T14:30:19.940Z,101077.69
2019-02-18T14:32:50.345Z,101081.20
2019-02-18T14:35:20.688Z,101079.62
2019-02-18T14:37:51.736Z,101076.93
2019-02-18T14:40:22.400Z,101075.36
2019-02-18T14:43:02.681Z,101073.88
2019-02-18T14:45:34.278Z,101075.59
2019-02-18T14:48:05.135Z,101078.28
2019-02-18T14:50:35.865Z,101073.12
2019-02-18T14:53:06.817Z,101073.26
2019-02-18T14:55:37.215Z,101067.87
2019-02-18T14:58:08.063Z,101069.09
2019-02-18T15:00:41.548Z,101068.51
2019-02-18T15:03:12.388Z,101075.73
2019-02-18T15:05:43.075Z,101069.76
2019-02-18T15:08:13.924Z,101069.89
2019-02-18T15:10:44.396Z,101060.34
2019-02-18T15:13:15.326Z,101060.31
2019-02-18T15:15:46.039Z,101059.09
2019-02-18T15:18:17.405Z,101052.51
2019-02-18T15:20:48.050Z,101047.89
2019-02-18T15:23:19.701Z,101044.13
2019-02-18T15:25:50.017Z,101043.41
2019-02-18T15:28:20.711Z,101045.47
2019-02-18T15:30:51.161Z,101044.52
2019-02-18T15:33:21.609Z,101039.87
2019-02-18T15:35:58.128Z,101032.92
2019-02-18T15:38:28.475Z,101036.59
2019-02-18T15:40:59.097Z,101032.47
2019-02-18T15:43:29.531Z,101027.09
2019-02-18T15:45:59.888Z,101028.66
2019-02-18T15:48:30.178Z,101021.45
2019-02-18T15:51:00.835Z,101027.81
2019-02-18T15:53:31.528Z,101020.50
2019-02-18T15:56:01.969Z,101019.65
2019-02-18T15:58:32.565Z,101021.52
2019-02-18T16:01:11.473Z,101011.02
2019-02-18T16:03:42.351Z,101012.73
2019-02-18T16:06:12.921Z,101013.31
2019-02-18T16:08:43.569Z,101010.52
2019-02-18T16:11:13.962Z,101010.65
2019-02-18T16:13:50.178Z,101004.78
2019-02-18T16:16:20.481Z,101010.79
2019-02-18T16:18:51.026Z,101010.29
2019-02-18T16:21:21.218Z,101007.50
2019-02-18T16:23:51.723Z,101000.06
2019-02-18T16:26:22.478Z,101002.75
2019-02-18T16:28:54.519Z,101009.32
2019-02-18T16:31:24.989Z,100999.31
2019-02-18T16:33:55.295Z,101008.96
2019-02-18T16:36:26.754Z,101001.16
2019-02-18T16:38:57.507Z,100999.56
2019-02-18T16:41:27.791Z,100996.64
2019-02-18T16:43:58.391Z,100995.52
2019-02-18T16:46:29.450Z,100991.98
2019-02-18T16:49:00.495Z,100991.50
2019-02-18T16:51:30.919Z,100995.63
2019-02-18T16:54:01.518Z,100995.97
2019-02-18T16:56:33.141Z,100995.97
2019-02-18T16:59:03.892Z,100979.01
2019-02-18T17:01:34.275Z,100979.01
2019-02-18T17:04:04.745Z,100988.76
2019-02-18T17:06:35.103Z,100987.84
2019-02-18T17:09:11.330Z,100979.77
2019-02-18T17:11:42.246Z,100979.77
2019-02-18T17:14:12.941Z,100991.47
2019-02-18T17:16:44.906Z,100991.47
2019-02-18T17:19:20.419Z,100985.09
2019-02-18T17:21:51.159Z,100985.09
2019-02-18T17:24:22.323Z,100987.53
2019-02-18T17:26:52.896Z,100988.47
2019-02-18T17:29:23.399Z,100990.48
2019-02-18T17:31:54.063Z,100991.33
2019-02-18T17:34:24.886Z,100975.83
2019-02-18T17:36:55.272Z,100972.42
2019-02-18T17:39:25.522Z,100972.90
2019-02-18T17:41:55.981Z,100970.66
2019-02-18T17:44:26.386Z,100962.98
2019-02-18T17:46:57.074Z,100960.86
2019-02-18T17:49:27.683Z,100959.48
2019-02-18T17:51:59.662Z,100955.08
2019-02-18T17:54:30.104Z,100965.38
2019-02-18T17:57:00.764Z,100954.41
2019-02-18T17:59:31.304Z,100950.95
2019-02-18T18:02:02.042Z,100952.03
2019-02-18T18:04:34.591Z,100947.77
2019-02-18T18:07:05.142Z,100947.72
2019-02-18T18:09:36.732Z,100940.35
2019-02-18T18:12:07.872Z,100937.42
2019-02-18T18:14:38.237Z,100929.52
2019-02-18T18:17:10.665Z,100924.64
2019-02-18T18:19:40.987Z,100923.79
2019-02-18T18:22:11.910Z,100917.90
2019-02-18T18:24:42.265Z,100916.80
2019-02-18T18:27:13.584Z,100904.78
2019-02-18T18:29:43.874Z,100900.03
2019-02-18T18:32:14.090Z,100903.67
2019-02-18T18:34:45.739Z,100899.89
2019-02-18T18:37:16.206Z,100903.13
2019-02-18T18:39:46.530Z,100893.63
2019-02-18T18:42:17.036Z,100901.88
2019-02-18T18:44:48.102Z,100907.66
2019-02-18T18:47:18.394Z,100906.55
2019-02-18T18:49:48.759Z,100902.22
2019-02-18T18:52:20.006Z,100910.86
2019-02-18T18:54:50.235Z,100904.75
2019-02-18T18:57:21.517Z,100900.88
2019-02-18T18:59:52.101Z,100896.73
2019-02-18T19:02:22.344Z,100900.44
2019-02-18T19:04:52.891Z,100899.60
2019-02-18T19:07:23.492Z,100900.05
2019-02-18T19:09:54.280Z,100898.97
2019-02-18T19:12:24.782Z,100898.60
2019-02-18T19:14:56.258Z,100895.93
2019-02-18T19:17:26.869Z,100894.22
2019-02-18T19:19:58.235Z,100898.34
2019-02-18T19:22:29.907Z,100891.37
2019-02-18T19:25:02.366Z,100888.70
2019-02-18T19:27:32.760Z,100893.37
2019-02-18T19:30:03.257Z,100884.39
2019-02-18T19:32:33.967Z,100884.91
2019-02-18T19:35:05.215Z,100890.25
2019-02-18T19:37:35.602Z,100884.66
2019-02-18T19:40:09.979Z,100886.29
2019-02-18T19:42:41.080Z,100892.81
2019-02-18T19:45:14.089Z,100889.59
2019-02-18T19:47:44.698Z,100885.39
2019-02-18T19:50:15.096Z,100874.52
2019-02-18T19:52:46.680Z,100883.28
2019-02-18T19:55:16.970Z,100878.53
2019-02-18T19:57:47.385Z,100878.27
2019-02-18T20:00:18.320Z,100881.45
2019-02-18T20:02:48.722Z,100878.14
2019-02-18T20:05:18.997Z,100877.45
2019-02-18T20:07:50.331Z,100877.19
2019-02-18T20:10:20.708Z,100877.69
2019-02-18T20:12:50.922Z,100875.77
2019-02-18T20:15:21.246Z,100872.84
2019-02-18T20:17:53.677Z,100867.92
2019-02-18T20:20:24.310Z,100871.45
2019-02-18T20:22:54.568Z,100875.62
2019-02-18T20:25:24.933Z,100876.22
2019-02-18T20:27:55.727Z,100870.72
2019-02-18T20:30:26.027Z,100868.04
2019-02-18T20:32:56.403Z,100866.17
2019-02-18T20:35:26.761Z,100860.45
2019-02-18T20:37:57.081Z,100865.43
2019-02-18T20:40:27.693Z,100864.11
2019-02-18T20:42:57.973Z,100863.36
2019-02-18T20:45:28.356Z,100860.05
2019-02-18T20:47:59.050Z,100860.33
2019-02-18T20:50:29.288Z,100855.00
2019-02-18T20:52:59.845Z,100852.53
2019-02-18T20:55:30.216Z,100849.88
2019-02-18T20:58:00.543Z,100849.67
2019-02-18T21:00:30.932Z,100847.37
2019-02-18T21:03:01.323Z,100844.71
2019-02-18T21:05:31.602Z,100849.12
2019-02-18T21:08:05.426Z,100834.84
2019-02-18T21:10:36.007Z,100843.05
2019-02-18T21:13:15.140Z,100839.42
2019-02-18T21:15:45.958Z,100841.14
2019-02-18T21:18:16.471Z,100838.88
2019-02-18T21:20:46.999Z,100838.03
2019-02-18T21:23:24.009Z,100838.03
2019-02-18T21:25:55.016Z,100839.05
2019-02-18T21:28:26.426Z,100831.44
2019-02-18T21:30:56.997Z,100830.10
2019-02-18T21:33:27.334Z,100830.89
2019-02-18T21:35:58.960Z,100830.89
2019-02-18T21:38:30.930Z,100834.41
2019-02-18T21:41:02.850Z,100833.55
2019-02-18T21:43:33.171Z,100817.73
2019-02-18T21:46:03.449Z,100817.46
2019-02-18T21:48:33.761Z,100817.19
2019-02-18T21:51:04.078Z,100816.44
2019-02-18T21:53:35.598Z,100820.81
2019-02-18T21:56:06.160Z,100823.00
2019-02-18T21:58:36.443Z,100815.48
2019-02-18T22:01:07.020Z,100811.11
2019-02-18T22:03:37.674Z,100812.23
2019-02-18T22:06:08.046Z,100809.41
2019-02-18T22:08:38.467Z,100807.42
2019-02-18T22:11:08.827Z,100805.68
2019-02-18T22:13:39.093Z,100804.93
2019-02-18T22:16:09.327Z,100802.78
2019-02-18T22:18:40.664Z,100810.01
2019-02-18T22:21:10.974Z,100804.67
2019-02-18T22:23:41.776Z,100802.02
2019-02-18T22:26:12.125Z,100800.69
2019-02-18T22:28:44.989Z,100800.86
2019-02-18T22:31:15.291Z,100796.58
2019-02-18T22:33:45.744Z,100788.31
2019-02-18T22:36:17.037Z,100788.31
2019-02-18T22:38:47.539Z,100782.03
2019-02-18T22:41:18.142Z,100780.22
2019-02-18T22:43:48.626Z,100774.25
2019-02-18T22:46:19.435Z,100779.45
2019-02-18T22:48:49.802Z,100782.42
2019-02-18T22:51:20.434Z,100782.22
2019-02-18T22:53:50.664Z,100776.14
2019-02-18T22:56:21.096Z,100770.70
2019-02-18T22:58:51.608Z,100761.38
2019-02-18T23:01:23.313Z,100768.34
2019-02-18T23:03:53.593Z,100763.19
2019-02-18T23:06:24.406Z,100751.20
2019-02-18T23:08:55.152Z,100750.62
2019-02-18T23:11:25.632Z,100756.73
2019-02-18T23:13:56.641Z,100750.45
2019-02-18T23:16:27.253Z,100748.38
2019-02-18T23:18:58.511Z,100750.66
2019-02-18T23:21:29.439Z,100752.94
2019-02-18T23:23:59.848Z,100756.56
2019-02-18T23:26:30.958Z,100752.37
2019-02-18T23:29:01.292Z,100747.14
2019-02-18T23:31:31.844Z,100745.13
2019-02-18T23:34:02.771Z,100742.47
2019-02-18T23:36:33.115Z,100741.13
2019-02-18T23:39:03.849Z,100741.81
2019-02-18T23:41:34.117Z,100738.67
2019-02-18T23:44:04.535Z,100731.74
2019-02-18T23:46:34.749Z,100729.55
2019-02-18T23:49:05.094Z,100729.38
2019-02-18T23:51:35.746Z,100725.00
2019-02-18T23:54:06.195Z,100714.93
2019-02-18T23:56:36.477Z,100716.84
2019-02-18T23:59:06.825Z,100725.94
